Time;durP1;ratioP1;P1;durP2;ratioP2;P2;SDS_P1;SDS_P2;PMS_P1;PMS_P2;Temp;Humidity;BMP_temperature;BMP_pressure;BME280_temperature;BME280_humidity;BME280_pressure;Samples;Min_cycle;Max_cycle;Signal;HPM_P1;HPM_P2
2023/12/06 00:01:17;;;;;;;66.70;22.00;;;;;;;;;;4988424;28;20038;-68
2023/12/06 00:03:42;;;;;;;55.35;20.00;;;;;;;;;;4989145;28;20014;-68
2023/12/06 00:06:07;;;;;;;57.80;19.55;;;;;;;;;;4989699;28;20026;-68
2023/12/06 00:08:33;;;;;;;47.08;16.70;;;;;;;;;;4990279;28;20018;-68
2023/12/06 00:10:59;;;;;;;52.10;18.33;;;;;;;;;;4989957;28;20546;-68
2023/12/06 00:13:24;;;;;;;48.55;17.95;;;;;;;;;;4987395;28;20026;-68
2023/12/06 00:15:50;;;;;;;51.88;18.92;;;;;;;;;;4989301;28;20421;-68
2023/12/06 00:18:15;;;;;;;53.95;20.83;;;;;;;;;;4985786;28;20038;-69
2023/12/06 00:20:40;;;;;;;43.38;19.35;;;;;;;;;;4989949;28;20072;-69
2023/12/06 00:23:05;;;;;;;50.47;17.50;;;;;;;;;;4988455;28;20022;-69
2023/12/06 00:25:30;;;;;;;59.88;21.30;;;;;;;;;;4989724;28;20769;-69
2023/12/06 00:27:55;;;;;;;63.47;21.75;;;;;;;;;;4985327;28;20018;-69
2023/12/06 00:30:21;;;;;;;53.10;19.20;;;;;;;;;;4985642;28;20203;-69
2023/12/06 00:32:46;;;;;;;56.53;22.60;;;;;;;;;;4984243;28;20372;-69
2023/12/06 00:35:11;;;;;;;52.45;20.48;;;;;;;;;;4989504;28;20415;-69
2023/12/06 00:37:37;;;;;;;72.03;28.15;;;;;;;;;;4989682;28;20045;-69
2023/12/06 00:40:03;;;;;;;58.40;20.27;;;;;;;;;;4989033;28;20014;-69
2023/12/06 00:42:28;;;;;;;48.38;17.55;;;;;;;;;;4983950;28;20045;-68
2023/12/06 00:44:53;;;;;;;56.20;20.13;;;;;;;;;;4989386;28;20034;-68
2023/12/06 00:47:18;;;;;;;52.80;18.42;;;;;;;;;;4984988;28;20030;-68
2023/12/06 00:49:44;;;;;;;57.50;22.25;;;;;;;;;;4989161;28;20027;-68
2023/12/06 00:52:09;;;;;;;66.75;26.35;;;;;;;;;;4983963;28;20113;-68
2023/12/06 00:54:34;;;;;;;52.13;19.10;;;;;;;;;;4988023;28;20057;-68
2023/12/06 00:57:00;;;;;;;63.45;21.15;;;;;;;;;;4989470;28;20505;-68
2023/12/06 00:59:25;;;;;;;55.85;19.38;;;;;;;;;;4989584;28;20022;-68
2023/12/06 01:01:50;;;;;;;68.40;30.47;;;;;;;;;;4988064;28;20046;-68
2023/12/06 01:04:15;;;;;;;66.55;29.35;;;;;;;;;;4989115;28;20664;-68
2023/12/06 01:06:40;;;;;;;63.47;22.50;;;;;;;;;;4979654;28;20031;-68
2023/12/06 01:09:06;;;;;;;55.47;20.83;;;;;;;;;;4982372;28;20776;-68
2023/12/06 01:11:31;;;;;;;61.30;19.75;;;;;;;;;;4988839;28;20026;-68
2023/12/06 01:13:57;;;;;;;62.95;22.25;;;;;;;;;;4985126;28;20093;-68
2023/12/06 01:16:22;;;;;;;54.30;19.77;;;;;;;;;;4985757;28;20470;-68
2023/12/06 01:18:47;;;;;;;52.20;19.87;;;;;;;;;;4989724;28;20265;-68
2023/12/06 01:21:12;;;;;;;60.67;22.13;;;;;;;;;;4984496;28;20744;-68
2023/12/06 01:23:37;;;;;;;60.75;21.45;;;;;;;;;;4988143;28;20031;-68
2023/12/06 01:26:02;;;;;;;64.63;23.23;;;;;;;;;;4984590;28;20031;-68
2023/12/06 01:28:28;;;;;;;57.97;19.48;;;;;;;;;;4989432;28;20763;-68
2023/12/06 01:30:53;;;;;;;63.80;25.08;;;;;;;;;;4988828;28;20142;-68
2023/12/06 01:33:18;;;;;;;70.22;22.25;;;;;;;;;;4987432;28;20108;-68
2023/12/06 01:35:43;;;;;;;51.92;19.05;;;;;;;;;;4984895;28;20023;-67
2023/12/06 01:38:10;;;;;;;65.68;22.52;;;;;;;;;;4984518;28;20363;-67
2023/12/06 01:40:39;;;;;;;63.13;22.95;;;;;;;;;;4988140;28;20409;-67
2023/12/06 01:43:05;;;;;;;52.00;18.88;;;;;;;;;;4981399;28;20032;-67
2023/12/06 01:45:30;;;;;;;52.85;18.70;;;;;;;;;;4988954;28;20105;-67
2023/12/06 01:47:55;;;;;;;56.08;19.40;;;;;;;;;;4988024;28;20022;-67
2023/12/06 01:50:23;;;;;;;58.17;18.85;;;;;;;;;;4988460;28;20018;-67
2023/12/06 01:52:48;;;;;;;61.47;19.63;;;;;;;;;;4991395;28;20106;-67
2023/12/06 01:55:13;;;;;;;70.25;20.95;;;;;;;;;;4992621;28;20425;-67
2023/12/06 01:57:39;;;;;;;57.58;20.25;;;;;;;;;;4991828;28;20646;-67
2023/12/06 02:00:04;;;;;;;58.78;20.80;;;;;;;;;;4983166;28;20469;-67
2023/12/06 02:02:30;;;;;;;60.58;19.33;;;;;;;;;;4988034;28;20117;-67
2023/12/06 02:04:55;;;;;;;58.58;19.98;;;;;;;;;;4985802;28;20037;-67
2023/12/06 02:07:21;;;;;;;66.35;22.02;;;;;;;;;;4991863;28;20029;-67
2023/12/06 02:09:46;;;;;;;65.88;20.40;;;;;;;;;;4992294;28;20026;-67
2023/12/06 02:12:11;;;;;;;76.57;23.73;;;;;;;;;;4990609;28;20537;-67
2023/12/06 02:14:36;;;;;;;66.10;22.52;;;;;;;;;;4987430;28;20262;-67
2023/12/06 02:17:03;;;;;;;72.70;21.92;;;;;;;;;;4992076;28;20077;-67
2023/12/06 02:19:29;;;;;;;76.38;24.40;;;;;;;;;;4992673;28;20101;-67
2023/12/06 02:21:55;;;;;;;78.32;25.17;;;;;;;;;;4990996;28;20122;-67
2023/12/06 02:24:20;;;;;;;107.60;33.80;;;;;;;;;;4990635;28;20081;-67
2023/12/06 02:26:45;;;;;;;106.10;36.60;;;;;;;;;;4991867;28;20077;-67
2023/12/06 02:29:11;;;;;;;108.63;32.92;;;;;;;;;;4991316;28;20023;-67
2023/12/06 02:31:36;;;;;;;91.45;26.27;;;;;;;;;;4990901;28;20109;-67
2023/12/06 02:34:04;;;;;;;107.13;33.73;;;;;;;;;;4990646;28;20022;-67
2023/12/06 02:36:30;;;;;;;95.50;27.40;;;;;;;;;;4991661;28;20289;-67
2023/12/06 02:38:55;;;;;;;82.43;26.90;;;;;;;;;;4991985;28;20029;-67
2023/12/06 02:41:21;;;;;;;106.68;30.10;;;;;;;;;;4987591;28;20141;-67
2023/12/06 02:43:47;;;;;;;125.25;37.00;;;;;;;;;;4990590;28;20382;-67
2023/12/06 02:46:12;;;;;;;114.45;35.10;;;;;;;;;;4972955;28;20030;-67
2023/12/06 02:48:37;;;;;;;96.43;28.88;;;;;;;;;;4987311;28;20018;-67
2023/12/06 02:51:02;;;;;;;111.60;32.13;;;;;;;;;;4990166;28;20037;-66
2023/12/06 02:53:28;;;;;;;151.68;46.72;;;;;;;;;;4987849;28;20672;-67
2023/12/06 02:55:53;;;;;;;116.57;33.90;;;;;;;;;;4986138;28;20030;-67
2023/12/06 02:58:18;;;;;;;138.98;35.50;;;;;;;;;;4991049;28;20375;-67
2023/12/06 03:00:43;;;;;;;120.83;34.50;;;;;;;;;;4990199;28;20532;-67
2023/12/06 03:03:08;;;;;;;130.50;38.90;;;;;;;;;;4990392;28;20502;-67
2023/12/06 03:05:34;;;;;;;130.98;34.95;;;;;;;;;;4990940;28;20780;-66
2023/12/06 03:07:59;;;;;;;123.93;38.05;;;;;;;;;;4985538;28;20022;-67
2023/12/06 03:10:24;;;;;;;113.90;36.47;;;;;;;;;;4985911;28;20056;-67
2023/12/06 03:12:49;;;;;;;155.73;48.57;;;;;;;;;;4989514;28;20481;-67
2023/12/06 03:15:14;;;;;;;151.60;40.77;;;;;;;;;;4989588;28;20272;-67
2023/12/06 03:17:40;;;;;;;122.25;34.47;;;;;;;;;;4987696;28;20768;-67
2023/12/06 03:20:06;;;;;;;150.32;42.85;;;;;;;;;;4986003;28;20022;-67
2023/12/06 03:22:32;;;;;;;115.80;33.17;;;;;;;;;;4987799;28;20022;-67
2023/12/06 03:24:57;;;;;;;137.68;37.75;;;;;;;;;;4984328;28;20457;-67
2023/12/06 03:27:22;;;;;;;122.20;35.80;;;;;;;;;;4984455;28;20033;-67
2023/12/06 03:29:47;;;;;;;145.25;42.35;;;;;;;;;;4988883;28;20038;-67
2023/12/06 03:32:12;;;;;;;120.88;35.38;;;;;;;;;;4989897;28;20093;-67
2023/12/06 03:34:38;;;;;;;136.45;46.50;;;;;;;;;;4986232;28;20029;-67
2023/12/06 03:37:03;;;;;;;115.43;35.08;;;;;;;;;;4990532;28;20681;-67
2023/12/06 03:39:28;;;;;;;126.38;41.08;;;;;;;;;;4984178;28;20042;-67
2023/12/06 03:41:53;;;;;;;113.20;36.63;;;;;;;;;;4989878;28;20026;-67
2023/12/06 03:44:19;;;;;;;112.20;37.77;;;;;;;;;;4988166;28;20046;-67
2023/12/06 03:46:44;;;;;;;103.45;36.40;;;;;;;;;;4988558;28;20250;-67
2023/12/06 03:49:09;;;;;;;96.23;34.57;;;;;;;;;;4982978;28;20026;-67
2023/12/06 03:51:34;;;;;;;112.18;35.95;;;;;;;;;;4988727;28;20340;-67
2023/12/06 03:53:59;;;;;;;125.57;44.97;;;;;;;;;;4986099;28;20532;-67
2023/12/06 03:56:24;;;;;;;128.23;45.92;;;;;;;;;;4984932;28;20033;-67
2023/12/06 03:58:50;;;;;;;100.07;34.10;;;;;;;;;;4990517;28;20069;-67
2023/12/06 04:01:15;;;;;;;96.40;35.17;;;;;;;;;;4989027;28;20023;-67
2023/12/06 04:03:41;;;;;;;112.97;42.78;;;;;;;;;;4990060;28;20105;-67
2023/12/06 04:06:07;;;;;;;82.80;29.95;;;;;;;;;;4989947;28;20034;-66
2023/12/06 04:08:32;;;;;;;96.30;35.70;;;;;;;;;;4986948;28;20114;-67
2023/12/06 04:10:57;;;;;;;96.78;35.05;;;;;;;;;;4985131;28;20464;-67
2023/12/06 04:13:22;;;;;;;89.60;33.03;;;;;;;;;;4989838;28;20058;-67
2023/12/06 04:15:47;;;;;;;88.53;32.90;;;;;;;;;;4982698;28;20042;-67
2023/12/06 04:18:13;;;;;;;90.63;33.90;;;;;;;;;;4990125;28;20265;-67
2023/12/06 04:20:38;;;;;;;110.28;44.00;;;;;;;;;;4973828;28;20280;-67
2023/12/06 04:23:03;;;;;;;108.27;41.73;;;;;;;;;;4989672;28;20089;-67
2023/12/06 04:25:28;;;;;;;90.27;32.53;;;;;;;;;;4986402;28;20246;-67
2023/12/06 04:27:53;;;;;;;109.97;50.95;;;;;;;;;;4986088;28;20810;-67
2023/12/06 04:30:19;;;;;;;89.60;33.05;;;;;;;;;;4982292;28;20038;-67
2023/12/06 04:32:44;;;;;;;95.47;36.42;;;;;;;;;;4989583;28;20030;-67
2023/12/06 04:35:09;;;;;;;101.77;44.13;;;;;;;;;;4989129;28;20125;-67
2023/12/06 04:37:35;;;;;;;89.47;35.53;;;;;;;;;;4986707;28;20304;-67
2023/12/06 04:40:00;;;;;;;89.00;31.88;;;;;;;;;;4984737;28;20041;-67
2023/12/06 04:42:25;;;;;;;81.18;31.20;;;;;;;;;;4989110;28;20066;-67
2023/12/06 04:44:50;;;;;;;96.43;36.42;;;;;;;;;;4986098;28;20018;-67
2023/12/06 04:47:15;;;;;;;91.17;33.57;;;;;;;;;;4987859;28;20653;-67
2023/12/06 04:49:41;;;;;;;100.77;40.50;;;;;;;;;;4986945;28;20253;-67
2023/12/06 04:52:06;;;;;;;101.40;38.20;;;;;;;;;;4988331;28;20958;-67
2023/12/06 04:54:31;;;;;;;102.53;42.15;;;;;;;;;;4986004;28;20041;-67
2023/12/06 04:56:58;;;;;;;86.45;30.05;;;;;;;;;;4985860;28;20030;-67
2023/12/06 04:59:24;;;;;;;89.97;32.70;;;;;;;;;;4985888;28;20042;-67
2023/12/06 05:01:49;;;;;;;103.45;41.30;;;;;;;;;;4988160;28;20052;-67
2023/12/06 05:04:14;;;;;;;85.05;31.33;;;;;;;;;;4984935;28;20076;-67
2023/12/06 05:06:40;;;;;;;93.95;34.55;;;;;;;;;;4985854;28;20118;-67
2023/12/06 05:09:07;;;;;;;83.43;31.98;;;;;;;;;;4986220;28;20038;-67
2023/12/06 05:11:32;;;;;;;86.72;33.85;;;;;;;;;;4988090;28;20390;-67
2023/12/06 05:13:57;;;;;;;85.47;31.83;;;;;;;;;;4987804;28;20029;-67
2023/12/06 05:16:22;;;;;;;93.80;33.65;;;;;;;;;;4984299;28;20022;-66
2023/12/06 05:18:48;;;;;;;93.40;34.50;;;;;;;;;;4984048;28;20114;-67
2023/12/06 05:21:13;;;;;;;86.75;33.33;;;;;;;;;;4991011;28;20044;-67
2023/12/06 05:23:38;;;;;;;109.53;41.17;;;;;;;;;;4993055;28;20471;-67
2023/12/06 05:26:04;;;;;;;90.40;32.17;;;;;;;;;;4992809;28;20487;-67
2023/12/06 05:28:29;;;;;;;88.82;31.65;;;;;;;;;;4992515;28;20268;-67
2023/12/06 05:30:54;;;;;;;95.57;29.83;;;;;;;;;;4991540;28;20030;-67
2023/12/06 05:33:19;;;;;;;106.67;34.00;;;;;;;;;;4992299;28;20034;-67
2023/12/06 05:35:46;;;;;;;89.10;33.03;;;;;;;;;;4989687;28;20769;-67
2023/12/06 05:38:11;;;;;;;105.97;35.30;;;;;;;;;;4989128;28;20304;-67
2023/12/06 05:40:36;;;;;;;81.97;30.10;;;;;;;;;;4990783;28;20026;-67
2023/12/06 05:43:02;;;;;;;93.18;31.00;;;;;;;;;;4992628;28;20539;-67
2023/12/06 05:45:27;;;;;;;105.18;34.30;;;;;;;;;;4986441;28;20439;-67
2023/12/06 05:47:52;;;;;;;105.28;33.13;;;;;;;;;;4985218;28;20089;-67
2023/12/06 05:50:17;;;;;;;109.72;40.08;;;;;;;;;;4989916;28;20029;-67
2023/12/06 05:52:43;;;;;;;98.10;29.93;;;;;;;;;;4991746;28;20033;-67
2023/12/06 05:55:08;;;;;;;102.03;33.13;;;;;;;;;;4988736;28;20614;-67
2023/12/06 05:57:33;;;;;;;93.65;34.50;;;;;;;;;;4985931;28;20385;-67
2023/12/06 05:59:58;;;;;;;90.50;30.73;;;;;;;;;;4988484;28;20026;-67
2023/12/06 06:02:24;;;;;;;96.20;32.35;;;;;;;;;;4987570;28;20027;-67
2023/12/06 06:04:49;;;;;;;91.35;30.25;;;;;;;;;;4992391;28;20026;-67
2023/12/06 06:07:14;;;;;;;94.95;31.52;;;;;;;;;;4988860;28;20105;-67
2023/12/06 06:09:39;;;;;;;91.28;32.70;;;;;;;;;;4989038;28;20478;-67
2023/12/06 06:12:07;;;;;;;93.57;30.17;;;;;;;;;;4990834;28;20026;-67
2023/12/06 06:14:32;;;;;;;87.68;32.63;;;;;;;;;;4988963;28;20018;-67
2023/12/06 06:16:57;;;;;;;91.25;31.88;;;;;;;;;;4988760;28;20029;-67
2023/12/06 06:19:22;;;;;;;84.77;28.83;;;;;;;;;;4988105;28;20023;-67
2023/12/06 06:21:47;;;;;;;104.65;38.40;;;;;;;;;;4973679;28;20335;-67
2023/12/06 06:24:12;;;;;;;112.33;40.10;;;;;;;;;;4991061;28;20033;-67
2023/12/06 06:26:38;;;;;;;91.00;32.10;;;;;;;;;;4989183;28;20385;-67
2023/12/06 06:29:03;;;;;;;84.90;32.00;;;;;;;;;;4988438;28;20277;-67
2023/12/06 06:31:28;;;;;;;82.60;30.57;;;;;;;;;;4987503;28;20022;-67
2023/12/06 06:33:53;;;;;;;81.65;32.33;;;;;;;;;;4987429;28;20269;-67
2023/12/06 06:36:19;;;;;;;83.32;30.48;;;;;;;;;;4986671;28;20122;-67
2023/12/06 06:38:45;;;;;;;114.18;38.65;;;;;;;;;;4972156;28;20810;-67
2023/12/06 06:41:10;;;;;;;96.07;35.40;;;;;;;;;;4988226;28;20030;-67
2023/12/06 06:43:36;;;;;;;89.90;31.98;;;;;;;;;;4988992;28;20025;-67
2023/12/06 06:46:02;;;;;;;89.97;34.60;;;;;;;;;;4987874;28;20026;-67
2023/12/06 06:48:27;;;;;;;72.32;28.20;;;;;;;;;;4989031;28;20543;-67
2023/12/06 06:50:52;;;;;;;89.03;34.40;;;;;;;;;;4988177;28;20038;-67
2023/12/06 06:53:17;;;;;;;71.45;26.55;;;;;;;;;;4990264;28;20029;-68
2023/12/06 06:55:43;;;;;;;78.65;30.02;;;;;;;;;;4988998;28;20026;-67
2023/12/06 06:58:08;;;;;;;84.10;31.23;;;;;;;;;;4989942;28;20424;-67
2023/12/06 07:00:33;;;;;;;94.80;38.00;;;;;;;;;;4987460;28;20449;-67
2023/12/06 07:02:59;;;;;;;85.80;34.00;;;;;;;;;;4988817;28;20045;-67
2023/12/06 07:05:24;;;;;;;77.85;27.75;;;;;;;;;;4990238;28;20273;-68
2023/12/06 07:07:49;;;;;;;84.30;30.80;;;;;;;;;;4990702;28;20481;-68
2023/12/06 07:10:14;;;;;;;85.17;33.73;;;;;;;;;;4990874;28;20501;-67
2023/12/06 07:12:39;;;;;;;82.18;33.92;;;;;;;;;;4991102;28;20257;-67
2023/12/06 07:15:05;;;;;;;95.37;39.33;;;;;;;;;;4990504;28;20105;-67
2023/12/06 07:17:30;;;;;;;80.63;31.90;;;;;;;;;;4989582;28;20292;-67
2023/12/06 07:19:55;;;;;;;82.07;33.20;;;;;;;;;;4989672;28;20093;-67
2023/12/06 07:22:21;;;;;;;91.73;40.50;;;;;;;;;;4984832;28;20094;-67
2023/12/06 07:24:47;;;;;;;81.50;32.88;;;;;;;;;;4990348;28;20274;-67
2023/12/06 07:27:12;;;;;;;87.18;31.98;;;;;;;;;;4990368;28;20025;-67
2023/12/06 07:29:37;;;;;;;85.13;34.53;;;;;;;;;;4990545;28;20041;-67
2023/12/06 07:32:02;;;;;;;86.70;31.25;;;;;;;;;;4990473;28;20265;-67
2023/12/06 07:34:27;;;;;;;73.85;29.95;;;;;;;;;;4988602;28;20176;-68
2023/12/06 07:36:53;;;;;;;87.07;32.83;;;;;;;;;;4988592;28;20044;-67
2023/12/06 07:39:18;;;;;;;80.20;32.20;;;;;;;;;;4988003;28;20022;-67
2023/12/06 07:41:44;;;;;;;84.00;32.80;;;;;;;;;;4989551;28;20034;-68
2023/12/06 07:44:09;;;;;;;82.85;32.40;;;;;;;;;;4988426;28;20034;-68
2023/12/06 07:46:35;;;;;;;82.38;34.55;;;;;;;;;;4989563;28;20034;-68
2023/12/06 07:49:00;;;;;;;97.43;38.08;;;;;;;;;;4990567;28;20026;-67
2023/12/06 07:51:25;;;;;;;83.78;30.45;;;;;;;;;;4990117;28;20026;-68
2023/12/06 07:53:51;;;;;;;77.40;32.20;;;;;;;;;;4988346;28;20022;-67
2023/12/06 07:56:16;;;;;;;76.70;31.58;;;;;;;;;;4989424;28;20372;-67
2023/12/06 07:58:42;;;;;;;89.35;38.67;;;;;;;;;;4990015;28;20168;-67
2023/12/06 08:01:07;;;;;;;85.53;34.40;;;;;;;;;;4986582;28;20025;-67
2023/12/06 08:03:32;;;;;;;77.13;30.10;;;;;;;;;;4988932;28;20772;-67
2023/12/06 08:05:59;;;;;;;86.30;37.00;;;;;;;;;;4989402;28;20265;-67
2023/12/06 08:08:24;;;;;;;70.85;29.88;;;;;;;;;;4988296;28;20548;-68
2023/12/06 08:10:50;;;;;;;78.00;32.30;;;;;;;;;;4987430;28;20042;-67
2023/12/06 08:13:15;;;;;;;75.88;30.42;;;;;;;;;;4988028;28;20591;-67
2023/12/06 08:15:40;;;;;;;71.13;29.08;;;;;;;;;;4989700;28;20046;-68
2023/12/06 08:18:06;;;;;;;78.68;33.60;;;;;;;;;;4989636;28;20045;-68
2023/12/06 08:20:32;;;;;;;66.90;30.73;;;;;;;;;;4988599;28;20093;-68
2023/12/06 08:22:57;;;;;;;63.72;29.83;;;;;;;;;;4987068;28;20616;-67
2023/12/06 08:25:22;;;;;;;86.78;40.60;;;;;;;;;;4987759;28;20027;-68
2023/12/06 08:27:48;;;;;;;76.72;30.40;;;;;;;;;;4989231;28;20476;-68
2023/12/06 08:30:13;;;;;;;72.75;30.10;;;;;;;;;;4986705;28;20026;-67
2023/12/06 08:32:38;;;;;;;71.65;33.55;;;;;;;;;;4971871;28;20032;-68
2023/12/06 08:35:04;;;;;;;77.87;31.50;;;;;;;;;;4988943;28;20026;-68
2023/12/06 08:37:29;;;;;;;72.55;29.35;;;;;;;;;;4989244;28;20355;-68
2023/12/06 08:39:54;;;;;;;69.10;29.35;;;;;;;;;;4989562;28;20065;-68
2023/12/06 08:42:19;;;;;;;67.03;29.93;;;;;;;;;;4988989;28;20396;-68
2023/12/06 08:44:44;;;;;;;70.55;28.05;;;;;;;;;;4988064;28;20254;-67
2023/12/06 08:47:10;;;;;;;65.60;29.08;;;;;;;;;;4989755;28;20556;-68
2023/12/06 08:49:36;;;;;;;71.45;33.70;;;;;;;;;;4984395;28;20023;-67
2023/12/06 08:52:02;;;;;;;65.25;26.33;;;;;;;;;;4986808;28;20504;-68
2023/12/06 08:54:27;;;;;;;60.22;25.98;;;;;;;;;;4988095;28;20022;-68
2023/12/06 08:56:52;;;;;;;60.60;25.83;;;;;;;;;;4986619;28;20033;-68
2023/12/06 08:59:17;;;;;;;70.43;33.77;;;;;;;;;;4988489;28;20056;-68
2023/12/06 09:01:43;;;;;;;59.83;25.02;;;;;;;;;;4985840;28;20918;-68
2023/12/06 09:04:09;;;;;;;59.78;27.42;;;;;;;;;;4989236;28;20125;-68
2023/12/06 09:06:35;;;;;;;51.25;24.20;;;;;;;;;;4988036;28;20037;-68
2023/12/06 09:09:02;;;;;;;63.40;29.73;;;;;;;;;;4988842;28;20396;-67
2023/12/06 09:11:27;;;;;;;48.85;22.73;;;;;;;;;;4986394;28;20409;-67
2023/12/06 09:13:53;;;;;;;55.43;27.60;;;;;;;;;;4984286;28;20034;-68
2023/12/06 09:16:18;;;;;;;49.20;23.33;;;;;;;;;;4987692;28;20288;-68
2023/12/06 09:18:43;;;;;;;55.05;28.20;;;;;;;;;;4988740;28;20269;-68
2023/12/06 09:21:09;;;;;;;57.10;24.67;;;;;;;;;;4986607;28;20022;-68
2023/12/06 09:23:34;;;;;;;59.72;27.02;;;;;;;;;;4988616;28;20015;-68
2023/12/06 09:26:00;;;;;;;54.58;27.05;;;;;;;;;;4985767;28;20634;-69
2023/12/06 09:28:25;;;;;;;56.35;23.98;;;;;;;;;;4989384;28;20018;-67
2023/12/06 09:30:51;;;;;;;57.60;28.83;;;;;;;;;;4988961;28;20014;-67
2023/12/06 09:33:16;;;;;;;58.85;32.13;;;;;;;;;;4983713;28;20033;-67
2023/12/06 09:35:41;;;;;;;52.80;24.23;;;;;;;;;;4987490;28;20026;-67
2023/12/06 09:38:06;;;;;;;59.17;27.83;;;;;;;;;;4988791;28;20796;-68
2023/12/06 09:40:31;;;;;;;58.17;29.23;;;;;;;;;;4988558;28;20026;-67
2023/12/06 09:43:00;;;;;;;55.13;24.30;;;;;;;;;;4989038;28;20264;-67
2023/12/06 09:45:25;;;;;;;52.05;24.52;;;;;;;;;;4988392;28;20084;-67
2023/12/06 09:47:51;;;;;;;52.63;23.35;;;;;;;;;;4988879;28;20026;-67
2023/12/06 09:50:16;;;;;;;56.85;27.30;;;;;;;;;;4988533;28;20527;-67
2023/12/06 09:52:41;;;;;;;63.00;26.80;;;;;;;;;;4985735;28;20015;-68
2023/12/06 09:55:08;;;;;;;54.35;25.88;;;;;;;;;;4988157;28;20281;-68
2023/12/06 09:57:33;;;;;;;50.30;21.20;;;;;;;;;;4987982;28;20029;-68
2023/12/06 09:59:58;;;;;;;55.15;23.60;;;;;;;;;;4986424;28;20619;-68
2023/12/06 10:02:23;;;;;;;48.22;23.15;;;;;;;;;;4985903;28;20046;-68
2023/12/06 10:04:49;;;;;;;52.50;23.83;;;;;;;;;;4988718;28;20022;-68
2023/12/06 10:07:14;;;;;;;58.45;23.65;;;;;;;;;;4991841;28;20324;-68
2023/12/06 10:09:47;;;;;;;60.47;29.48;;;;;;;;;;4991859;28;20046;-68
2023/12/06 10:12:12;;;;;;;51.78;22.92;;;;;;;;;;4989996;28;20045;-67
2023/12/06 10:14:38;;;;;;;55.42;25.33;;;;;;;;;;4992243;28;20053;-68
2023/12/06 10:17:03;;;;;;;54.42;22.75;;;;;;;;;;4990902;28;20034;-67
2023/12/06 10:19:29;;;;;;;48.80;23.20;;;;;;;;;;4992224;28;20139;-67
2023/12/06 10:21:56;;;;;;;59.33;27.75;;;;;;;;;;4992393;28;20033;-67
2023/12/06 10:24:21;;;;;;;61.60;26.73;;;;;;;;;;4990663;28;20416;-68
2023/12/06 10:26:49;;;;;;;60.35;27.23;;;;;;;;;;4990336;28;20101;-68
2023/12/06 10:29:14;;;;;;;56.13;24.38;;;;;;;;;;4991961;28;20018;-68
2023/12/06 10:31:42;;;;;;;53.63;25.38;;;;;;;;;;4991627;28;20070;-68
2023/12/06 10:34:08;;;;;;;49.10;23.13;;;;;;;;;;4989126;28;20500;-68
2023/12/06 10:36:33;;;;;;;57.83;23.70;;;;;;;;;;4991120;28;20034;-68
2023/12/06 10:38:58;;;;;;;57.78;25.30;;;;;;;;;;4991638;28;20061;-67
2023/12/06 10:41:25;;;;;;;55.80;26.38;;;;;;;;;;4989137;28;20026;-67
2023/12/06 10:43:52;;;;;;;53.15;26.10;;;;;;;;;;4990033;28;20026;-68
2023/12/06 10:46:19;;;;;;;65.28;27.67;;;;;;;;;;4990874;28;20038;-67
2023/12/06 10:48:45;;;;;;;55.80;26.20;;;;;;;;;;4991619;28;20026;-68
2023/12/06 10:51:11;;;;;;;56.60;24.90;;;;;;;;;;4989196;28;20030;-67
2023/12/06 10:53:38;;;;;;;58.20;26.50;;;;;;;;;;4991159;28;20370;-67
2023/12/06 10:56:03;;;;;;;55.72;23.85;;;;;;;;;;4989672;28;20038;-68
2023/12/06 10:58:29;;;;;;;59.30;23.13;;;;;;;;;;4991340;28;20014;-68
2023/12/06 11:00:54;;;;;;;45.83;22.33;;;;;;;;;;4986255;28;20030;-68
2023/12/06 11:03:20;;;;;;;58.08;24.27;;;;;;;;;;4970978;28;20026;-68
2023/12/06 11:05:48;;;;;;;53.28;25.33;;;;;;;;;;4990264;28;20021;-67
2023/12/06 11:08:13;;;;;;;55.33;23.08;;;;;;;;;;4991523;28;20124;-68
2023/12/06 11:10:41;;;;;;;51.47;22.85;;;;;;;;;;4990254;28;20482;-69
2023/12/06 11:13:33;;;;;;;51.28;24.17;;;;;;;;;;4987813;28;20026;-70
2023/12/06 11:16:16;;;;;;;48.95;23.55;;;;;;;;;;4952862;28;20111;-69
2023/12/06 11:18:45;;;;;;;62.80;22.60;;;;;;;;;;4989073;28;20029;-69
2023/12/06 11:21:12;;;;;;;59.13;25.25;;;;;;;;;;4989564;28;20129;-69
2023/12/06 11:23:37;;;;;;;48.50;21.42;;;;;;;;;;4988514;28;20125;-68
2023/12/06 11:26:03;;;;;;;57.63;25.13;;;;;;;;;;4988594;28;20050;-67
2023/12/06 11:28:36;;;;;;;51.25;21.60;;;;;;;;;;4989729;28;20414;-68
2023/12/06 11:31:01;;;;;;;50.78;22.73;;;;;;;;;;4986689;28;20129;-68
2023/12/06 11:33:26;;;;;;;45.25;20.95;;;;;;;;;;4989963;28;20041;-68
2023/12/06 11:35:53;;;;;;;42.47;20.17;;;;;;;;;;4989450;28;20010;-68
2023/12/06 11:38:18;;;;;;;44.25;20.42;;;;;;;;;;4988896;28;20028;-68
2023/12/06 11:40:52;;;;;;;49.05;20.00;;;;;;;;;;4987719;28;20025;-68
2023/12/06 11:43:19;;;;;;;41.15;18.20;;;;;;;;;;4990556;28;20050;-67
2023/12/06 11:45:45;;;;;;;52.97;21.33;;;;;;;;;;4987097;28;20041;-68
2023/12/06 11:48:12;;;;;;;52.58;24.23;;;;;;;;;;4989830;28;20110;-68
2023/12/06 11:50:43;;;;;;;44.72;19.67;;;;;;;;;;4984763;28;20185;-67
2023/12/06 11:53:09;;;;;;;46.45;20.08;;;;;;;;;;4989016;28;20034;-67
2023/12/06 11:55:35;;;;;;;47.92;26.40;;;;;;;;;;4986651;28;20036;-67
2023/12/06 11:58:06;;;;;;;43.60;21.42;;;;;;;;;;4988057;28;20026;-67
2023/12/06 12:00:32;;;;;;;46.13;24.35;;;;;;;;;;4985737;28;20053;-68
2023/12/06 12:02:58;;;;;;;54.05;23.92;;;;;;;;;;4972518;28;20455;-68
2023/12/06 12:05:24;;;;;;;44.72;19.60;;;;;;;;;;4971495;28;20053;-68
2023/12/06 12:07:49;;;;;;;44.13;22.90;;;;;;;;;;4987843;28;21010;-68
2023/12/06 12:10:14;;;;;;;44.83;20.08;;;;;;;;;;4985066;28;20113;-68
2023/12/06 12:12:40;;;;;;;46.33;20.83;;;;;;;;;;4985902;28;20030;-68
2023/12/06 12:15:05;;;;;;;45.30;21.20;;;;;;;;;;4984381;28;20074;-67
2023/12/06 12:17:30;;;;;;;43.40;19.38;;;;;;;;;;4985652;28;20324;-68
2023/12/06 12:19:56;;;;;;;52.55;22.73;;;;;;;;;;4985627;28;20026;-68
2023/12/06 12:22:21;;;;;;;43.75;22.05;;;;;;;;;;4986619;28;20018;-68
2023/12/06 12:24:46;;;;;;;44.87;19.97;;;;;;;;;;4987236;28;20031;-68
2023/12/06 12:27:11;;;;;;;54.08;22.98;;;;;;;;;;4984256;28;20331;-67
2023/12/06 12:29:37;;;;;;;49.77;19.80;;;;;;;;;;4984943;28;20019;-67
2023/12/06 12:32:03;;;;;;;53.38;21.95;;;;;;;;;;4985888;28;20694;-68
2023/12/06 12:34:28;;;;;;;57.28;24.77;;;;;;;;;;4984299;28;20216;-68
2023/12/06 12:36:56;;;;;;;53.42;21.15;;;;;;;;;;4985252;28;20481;-68
2023/12/06 12:39:21;;;;;;;57.15;22.88;;;;;;;;;;4984882;28;20026;-67
2023/12/06 12:41:46;;;;;;;46.42;19.40;;;;;;;;;;4984914;28;20420;-68
2023/12/06 12:44:11;;;;;;;50.50;23.38;;;;;;;;;;4983954;28;20014;-68
2023/12/06 12:46:37;;;;;;;42.50;23.00;;;;;;;;;;4986530;28;20034;-67
2023/12/06 12:49:03;;;;;;;47.40;20.73;;;;;;;;;;4985552;28;20041;-68
2023/12/06 12:51:32;;;;;;;41.25;18.08;;;;;;;;;;4985655;28;20113;-67
2023/12/06 12:53:57;;;;;;;44.90;20.95;;;;;;;;;;4984105;28;20046;-68
2023/12/06 12:56:23;;;;;;;44.92;18.35;;;;;;;;;;4984732;28;20023;-67
2023/12/06 12:58:48;;;;;;;44.13;17.92;;;;;;;;;;4985587;28;20088;-68
2023/12/06 13:01:13;;;;;;;41.08;19.00;;;;;;;;;;4984732;28;20121;-67
2023/12/06 13:03:40;;;;;;;43.75;20.48;;;;;;;;;;4987098;28;20094;-67
2023/12/06 13:06:06;;;;;;;39.85;19.25;;;;;;;;;;4984362;28;20077;-68
2023/12/06 13:08:32;;;;;;;35.58;16.95;;;;;;;;;;4985454;28;20027;-67
2023/12/06 13:10:58;;;;;;;37.50;18.30;;;;;;;;;;4984824;28;20033;-67
2023/12/06 13:13:23;;;;;;;36.35;17.90;;;;;;;;;;4983957;28;20026;-68
2023/12/06 13:15:49;;;;;;;34.35;15.85;;;;;;;;;;4984533;28;20052;-68
2023/12/06 13:18:14;;;;;;;38.35;18.10;;;;;;;;;;4987604;28;20030;-68
2023/12/06 13:20:40;;;;;;;34.60;20.07;;;;;;;;;;4985537;28;20090;-68
2023/12/06 13:23:05;;;;;;;36.85;14.80;;;;;;;;;;4987328;28;20772;-67
2023/12/06 13:25:30;;;;;;;31.17;15.40;;;;;;;;;;4988049;28;20014;-68
2023/12/06 13:27:55;;;;;;;33.83;15.30;;;;;;;;;;4989090;28;20752;-68
2023/12/06 13:30:20;;;;;;;28.80;13.17;;;;;;;;;;4987378;28;20272;-67
2023/12/06 13:32:46;;;;;;;27.00;12.38;;;;;;;;;;4988061;28;20613;-68
2023/12/06 13:35:11;;;;;;;30.65;12.15;;;;;;;;;;4984668;28;20373;-68
2023/12/06 13:37:36;;;;;;;25.75;12.15;;;;;;;;;;4986319;28;20079;-66
2023/12/06 13:40:01;;;;;;;26.77;14.27;;;;;;;;;;4989773;28;20022;-65
2023/12/06 13:42:26;;;;;;;28.33;11.57;;;;;;;;;;4988636;28;20344;-66
2023/12/06 13:44:52;;;;;;;37.10;12.33;;;;;;;;;;4989926;28;20030;-66
2023/12/06 13:47:17;;;;;;;27.27;11.93;;;;;;;;;;4988153;28;20301;-66
2023/12/06 13:49:42;;;;;;;28.45;10.05;;;;;;;;;;4990781;28;20026;-66
2023/12/06 13:52:07;;;;;;;25.48;11.60;;;;;;;;;;4989280;28;20022;-66
2023/12/06 13:54:36;;;;;;;26.67;11.63;;;;;;;;;;4989037;28;20041;-68
2023/12/06 13:57:01;;;;;;;25.13;13.20;;;;;;;;;;4970369;28;20034;-68
2023/12/06 13:59:26;;;;;;;28.35;11.90;;;;;;;;;;4988906;28;20489;-68
2023/12/06 14:01:54;;;;;;;26.23;11.30;;;;;;;;;;4990037;28;20022;-66
2023/12/06 14:04:20;;;;;;;24.00;11.50;;;;;;;;;;4992182;28;20261;-66
2023/12/06 14:06:45;;;;;;;29.50;12.07;;;;;;;;;;4989106;28;20370;-66